sensor_id;sensor_type;location;lat;lon;timestamp;pressure;altitude;pressure_sealevel;temperature;humidity
64739;BME280;51175;51.186;0.276;2023-11-19T00:00:30;100570.66;;;12.61;85.30
64739;BME280;51175;51.186;0.276;2023-11-19T00:01:00;100569.91;;;12.60;85.21
64739;BME280;51175;51.186;0.276;2023-11-19T00:01:39;100560.88;;;12.56;85.47
64739;BME280;51175;51.186;0.276;2023-11-19T00:02:09;100580.75;;;12.59;85.31
64739;BME280;51175;51.186;0.276;2023-11-19T00:02:46;100577.59;;;12.57;85.15
64739;BME280;51175;51.186;0.276;2023-11-19T00:03:17;100577.31;;;12.58;85.27
64739;BME280;51175;51.186;0.276;2023-11-19T00:03:49;100577.31;;;12.58;85.12
64739;BME280;51175;51.186;0.276;2023-11-19T00:04:29;100572.56;;;12.55;85.43
64739;BME280;51175;51.186;0.276;2023-11-19T00:05:00;100565.13;;;12.57;85.36
64739;BME280;51175;51.186;0.276;2023-11-19T00:05:34;100570.72;;;12.56;85.22
64739;BME280;51175;51.186;0.276;2023-11-19T00:06:05;100578.66;;;12.56;85.01
64739;BME280;51175;51.186;0.276;2023-11-19T00:06:39;100564.88;;;12.53;85.11
64739;BME280;51175;51.186;0.276;2023-11-19T00:07:10;100567.53;;;12.53;84.99
64739;BME280;51175;51.186;0.276;2023-11-19T00:07:44;100564.06;;;12.53;85.00
64739;BME280;51175;51.186;0.276;2023-11-19T00:08:15;100561.44;;;12.53;84.74
64739;BME280;51175;51.186;0.276;2023-11-19T00:08:45;100564.88;;;12.53;84.72
64739;BME280;51175;51.186;0.276;2023-11-19T00:09:16;100566.72;;;12.53;84.90
64739;BME280;51175;51.186;0.276;2023-11-19T00:09:48;100563.31;;;12.52;84.78
64739;BME280;51175;51.186;0.276;2023-11-19T00:10:19;100564.88;;;12.53;84.52
64739;BME280;51175;51.186;0.276;2023-11-19T00:10:53;100560.94;;;12.51;84.77
64739;BME280;51175;51.186;0.276;2023-11-19T00:11:24;100565.94;;;12.52;84.53
64739;BME280;51175;51.186;0.276;2023-11-19T00:11:54;100564.34;;;12.51;84.51
64739;BME280;51175;51.186;0.276;2023-11-19T00:12:25;100562.50;;;12.52;84.58
64739;BME280;51175;51.186;0.276;2023-11-19T00:12:56;100567.00;;;12.51;84.80
64739;BME280;51175;51.186;0.276;2023-11-19T00:13:27;100565.16;;;12.52;84.54
64739;BME280;51175;51.186;0.276;2023-11-19T00:14:11;100563.03;;;12.49;84.32
64739;BME280;51175;51.186;0.276;2023-11-19T00:14:46;100559.31;;;12.50;84.56
64739;BME280;51175;51.186;0.276;2023-11-19T00:15:17;100561.69;;;12.51;84.65
64739;BME280;51175;51.186;0.276;2023-11-19T00:15:51;100562.78;;;12.50;84.50
64739;BME280;51175;51.186;0.276;2023-11-19T00:16:22;100564.63;;;12.50;84.36
64739;BME280;51175;51.186;0.276;2023-11-19T00:16:55;100569.91;;;12.50;84.43
64739;BME280;51175;51.186;0.276;2023-11-19T00:17:26;100570.72;;;12.50;84.57
64739;BME280;51175;51.186;0.276;2023-11-19T00:18:07;100573.91;;;12.47;84.46
64739;BME280;51175;51.186;0.276;2023-11-19T00:18:39;100569.13;;;12.49;84.25
64739;BME280;51175;51.186;0.276;2023-11-19T00:19:09;100569.13;;;12.49;84.34
64739;BME280;51175;51.186;0.276;2023-11-19T00:19:40;100564.13;;;12.48;84.40
64739;BME280;51175;51.186;0.276;2023-11-19T00:20:15;100573.09;;;12.47;84.40
64739;BME280;51175;51.186;0.276;2023-11-19T00:20:47;100566.22;;;12.46;84.23
64739;BME280;51175;51.186;0.276;2023-11-19T00:21:17;100567.53;;;12.48;84.19
64739;BME280;51175;51.186;0.276;2023-11-19T00:21:48;100565.16;;;12.47;84.34
64739;BME280;51175;51.186;0.276;2023-11-19T00:22:18;100568.59;;;12.47;84.44
64739;BME280;51175;51.186;0.276;2023-11-19T00:22:51;100572.84;;;12.48;84.37
64739;BME280;51175;51.186;0.276;2023-11-19T00:23:21;100565.97;;;12.47;84.31
64739;BME280;51175;51.186;0.276;2023-11-19T00:23:53;100573.91;;;12.47;84.06
64739;BME280;51175;51.186;0.276;2023-11-19T00:24:23;100565.16;;;12.47;84.23
64739;BME280;51175;51.186;0.276;2023-11-19T00:24:54;100568.88;;;12.46;84.26
64739;BME280;51175;51.186;0.276;2023-11-19T00:25:24;100568.88;;;12.46;84.11
64739;BME280;51175;51.186;0.276;2023-11-19T00:25:56;100568.88;;;12.46;84.11
64739;BME280;51175;51.186;0.276;2023-11-19T00:26:27;100569.16;;;12.44;84.14
64739;BME280;51175;51.186;0.276;2023-11-19T00:26:58;100572.59;;;12.45;84.09
64739;BME280;51175;51.186;0.276;2023-11-19T00:27:28;100569.94;;;12.45;84.30
64739;BME280;51175;51.186;0.276;2023-11-19T00:28:00;100577.91;;;12.45;84.46
64739;BME280;51175;51.186;0.276;2023-11-19T00:28:30;100571.78;;;12.44;84.45
64739;BME280;51175;51.186;0.276;2023-11-19T00:29:03;100573.66;;;12.44;84.23
64739;BME280;51175;51.186;0.276;2023-11-19T00:29:33;100568.34;;;12.44;84.08
64739;BME280;51175;51.186;0.276;2023-11-19T00:30:06;100564.94;;;12.43;84.24
64739;BME280;51175;51.186;0.276;2023-11-19T00:30:38;100562.28;;;12.43;84.22
64739;BME280;51175;51.186;0.276;2023-11-19T00:31:10;100552.72;;;12.42;84.37
64739;BME280;51175;51.186;0.276;2023-11-19T00:31:41;100558.81;;;12.43;84.29
64739;BME280;51175;51.186;0.276;2023-11-19T00:32:11;100558.81;;;12.43;84.21
64739;BME280;51175;51.186;0.276;2023-11-19T00:32:42;100554.59;;;12.41;84.24
64739;BME280;51175;51.186;0.276;2023-11-19T00:33:12;100551.94;;;12.41;84.23
64739;BME280;51175;51.186;0.276;2023-11-19T00:33:43;100553.00;;;12.40;84.39
64739;BME280;51175;51.186;0.276;2023-11-19T00:34:14;100549.56;;;12.40;84.28
64739;BME280;51175;51.186;0.276;2023-11-19T00:34:44;100557.53;;;12.40;84.22
64739;BME280;51175;51.186;0.276;2023-11-19T00:35:15;100559.38;;;12.39;84.19
64739;BME280;51175;51.186;0.276;2023-11-19T00:35:46;100551.69;;;12.38;84.24
64739;BME280;51175;51.186;0.276;2023-11-19T00:36:16;100554.59;;;12.36;84.22
64739;BME280;51175;51.186;0.276;2023-11-19T00:36:47;100564.94;;;12.38;84.47
64739;BME280;51175;51.186;0.276;2023-11-19T00:37:17;100554.59;;;12.36;84.30
64739;BME280;51175;51.186;0.276;2023-11-19T00:37:48;100562.56;;;12.36;84.38
64739;BME280;51175;51.186;0.276;2023-11-19T00:38:19;100560.72;;;12.37;84.36
64739;BME280;51175;51.186;0.276;2023-11-19T00:38:52;100554.06;;;12.34;84.35
64739;BME280;51175;51.186;0.276;2023-11-19T00:39:23;100556.72;;;12.34;84.52
64739;BME280;51175;51.186;0.276;2023-11-19T00:39:53;100560.19;;;12.35;84.49
64739;BME280;51175;51.186;0.276;2023-11-19T00:40:26;100551.44;;;12.34;84.31
64739;BME280;51175;51.186;0.276;2023-11-19T00:40:56;100554.06;;;12.34;84.64
64739;BME280;51175;51.186;0.276;2023-11-19T00:41:27;100556.72;;;12.34;84.51
64739;BME280;51175;51.186;0.276;2023-11-19T00:41:57;100555.16;;;12.33;84.38
64739;BME280;51175;51.186;0.276;2023-11-19T00:42:28;100555.16;;;12.33;84.22
64739;BME280;51175;51.186;0.276;2023-11-19T00:42:59;100543.75;;;12.33;84.37
64739;BME280;51175;51.186;0.276;2023-11-19T00:43:30;100557.00;;;12.33;84.37
64739;BME280;51175;51.186;0.276;2023-11-19T00:44:00;100550.91;;;12.32;84.48
64739;BME280;51175;51.186;0.276;2023-11-19T00:44:31;100543.75;;;12.33;84.41
64739;BME280;51175;51.186;0.276;2023-11-19T00:45:09;100543.50;;;12.29;84.53
64739;BME280;51175;51.186;0.276;2023-11-19T00:45:40;100551.97;;;12.31;84.49
64739;BME280;51175;51.186;0.276;2023-11-19T00:46:11;100542.44;;;12.30;84.71
64739;BME280;51175;51.186;0.276;2023-11-19T00:46:41;100549.59;;;12.29;84.61
64739;BME280;51175;51.186;0.276;2023-11-19T00:47:11;100546.94;;;12.29;84.68
64739;BME280;51175;51.186;0.276;2023-11-19T00:47:42;100549.59;;;12.29;84.62
64739;BME280;51175;51.186;0.276;2023-11-19T00:48:22;100546.69;;;12.26;84.47
64739;BME280;51175;51.186;0.276;2023-11-19T00:48:53;100551.69;;;12.27;84.71
64739;BME280;51175;51.186;0.276;2023-11-19T00:49:24;100553.56;;;12.27;84.84
64739;BME280;51175;51.186;0.276;2023-11-19T00:50:04;100546.16;;;12.24;84.84
64739;BME280;51175;51.186;0.276;2023-11-19T00:50:35;100550.66;;;12.23;84.79
64739;BME280;51175;51.186;0.276;2023-11-19T00:51:06;100554.88;;;12.24;84.87
64739;BME280;51175;51.186;0.276;2023-11-19T00:51:37;100541.16;;;12.22;84.72
64739;BME280;51175;51.186;0.276;2023-11-19T00:52:08;100546.16;;;12.24;84.89
64739;BME280;51175;51.186;0.276;2023-11-19T00:52:38;100548.81;;;12.24;84.93
64739;BME280;51175;51.186;0.276;2023-11-19T00:53:10;100543.00;;;12.22;84.87
64739;BME280;51175;51.186;0.276;2023-11-19T00:53:41;100548.28;;;12.22;85.06
64739;BME280;51175;51.186;0.276;2023-11-19T00:54:12;100546.72;;;12.21;84.99
64739;BME280;51175;51.186;0.276;2023-11-19T00:54:43;100544.06;;;12.21;84.81
64739;BME280;51175;51.186;0.276;2023-11-19T00:55:15;100544.84;;;12.21;85.16
64739;BME280;51175;51.186;0.276;2023-11-19T00:55:45;100541.41;;;12.21;84.94
64739;BME280;51175;51.186;0.276;2023-11-19T00:56:26;100543.53;;;12.19;84.99
64739;BME280;51175;51.186;0.276;2023-11-19T00:56:58;100547.47;;;12.21;85.29
64739;BME280;51175;51.186;0.276;2023-11-19T00:57:28;100542.47;;;12.20;85.06
64739;BME280;51175;51.186;0.276;2023-11-19T00:58:11;100539.31;;;12.18;84.92
64739;BME280;51175;51.186;0.276;2023-11-19T00:58:41;100541.94;;;12.18;84.87
64739;BME280;51175;51.186;0.276;2023-11-19T00:59:15;100545.66;;;12.16;84.88
64739;BME280;51175;51.186;0.276;2023-11-19T00:59:46;100541.94;;;12.18;85.30
64739;BME280;51175;51.186;0.276;2023-11-19T01:00:28;100542.75;;;12.13;85.19
64739;BME280;51175;51.186;0.276;2023-11-19T01:01:16;100544.59;;;12.12;85.00
64739;BME280;51175;51.186;0.276;2023-11-19T01:01:47;100551.47;;;12.13;85.24
64739;BME280;51175;51.186;0.276;2023-11-19T01:02:48;100546.72;;;12.10;85.13
64739;BME280;51175;51.186;0.276;2023-11-19T01:03:20;100552.53;;;12.12;85.39
64739;BME280;51175;51.186;0.276;2023-11-19T01:03:50;100554.38;;;12.12;85.36
64739;BME280;51175;51.186;0.276;2023-11-19T01:04:26;100556.53;;;12.10;85.17
64739;BME280;51175;51.186;0.276;2023-11-19T01:04:57;100547.53;;;12.11;85.43
64739;BME280;51175;51.186;0.276;2023-11-19T01:05:28;100546.72;;;12.10;85.02
64739;BME280;51175;51.186;0.276;2023-11-19T01:06:03;100550.44;;;12.09;85.52
64739;BME280;51175;51.186;0.276;2023-11-19T01:06:33;100544.88;;;12.11;85.24
64739;BME280;51175;51.186;0.276;2023-11-19T01:07:09;100544.56;;;12.07;85.12
64739;BME280;51175;51.186;0.276;2023-11-19T01:07:43;100539.84;;;12.09;85.05
64739;BME280;51175;51.186;0.276;2023-11-19T01:08:48;100542.19;;;12.05;85.31
64739;BME280;51175;51.186;0.276;2023-11-19T01:09:31;100545.13;;;12.04;85.65
64739;BME280;51175;51.186;0.276;2023-11-19T01:10:18;100545.13;;;12.04;85.32
64739;BME280;51175;51.186;0.276;2023-11-19T01:10:49;100536.63;;;12.07;85.44
64739;BME280;51175;51.186;0.276;2023-11-19T01:11:22;100542.19;;;12.05;85.55
64739;BME280;51175;51.186;0.276;2023-11-19T01:11:53;100542.75;;;12.08;85.42
64739;BME280;51175;51.186;0.276;2023-11-19T01:12:26;100536.13;;;12.05;85.47
64739;BME280;51175;51.186;0.276;2023-11-19T01:12:56;100535.84;;;12.07;85.50
64739;BME280;51175;51.186;0.276;2023-11-19T01:13:28;100539.56;;;12.05;85.39
64739;BME280;51175;51.186;0.276;2023-11-19T01:13:59;100540.34;;;12.06;85.50
64739;BME280;51175;51.186;0.276;2023-11-19T01:14:36;100542.47;;;12.04;85.52
64739;BME280;51175;51.186;0.276;2023-11-19T01:15:08;100541.69;;;12.03;85.36
64739;BME280;51175;51.186;0.276;2023-11-19T01:15:38;100537.16;;;12.04;85.46
64739;BME280;51175;51.186;0.276;2023-11-19T01:16:11;100535.59;;;12.03;85.55
64739;BME280;51175;51.186;0.276;2023-11-19T01:16:43;100538.25;;;12.03;85.40
64739;BME280;51175;51.186;0.276;2023-11-19T01:17:14;100538.25;;;12.03;85.38
64739;BME280;51175;51.186;0.276;2023-11-19T01:17:46;100542.47;;;12.04;85.58
64739;BME280;51175;51.186;0.276;2023-11-19T01:18:17;100537.44;;;12.02;85.47
64739;BME280;51175;51.186;0.276;2023-11-19T01:18:48;100543.53;;;12.03;85.64
64739;BME280;51175;51.186;0.276;2023-11-19T01:19:21;100544.34;;;12.03;85.57
64739;BME280;51175;51.186;0.276;2023-11-19T01:19:52;100541.69;;;12.03;85.39
64739;BME280;51175;51.186;0.276;2023-11-19T01:20:29;100547.25;;;12.02;85.57
64739;BME280;51175;51.186;0.276;2023-11-19T01:20:59;100547.75;;;12.04;85.48
64739;BME280;51175;51.186;0.276;2023-11-19T01:21:41;100542.22;;;12.00;85.34
64739;BME280;51175;51.186;0.276;2023-11-19T01:22:11;100541.97;;;12.02;85.67
64739;BME280;51175;51.186;0.276;2023-11-19T01:22:42;100530.56;;;12.01;85.37
64739;BME280;51175;51.186;0.276;2023-11-19T01:23:12;100544.59;;;12.02;85.59
64739;BME280;51175;51.186;0.276;2023-11-19T01:23:43;100552.00;;;12.00;85.38
64739;BME280;51175;51.186;0.276;2023-11-19T01:24:15;100538.78;;;12.00;85.30
64739;BME280;51175;51.186;0.276;2023-11-19T01:24:46;100534.28;;;12.00;85.54
64739;BME280;51175;51.186;0.276;2023-11-19T01:25:30;100543.53;;;11.98;85.25
64739;BME280;51175;51.186;0.276;2023-11-19T01:26:01;100541.44;;;12.00;85.23
64739;BME280;51175;51.186;0.276;2023-11-19T01:26:36;100547.75;;;11.99;85.26
64739;BME280;51175;51.186;0.276;2023-11-19T01:27:08;100540.63;;;11.99;85.56
64739;BME280;51175;51.186;0.276;2023-11-19T01:27:39;100537.72;;;12.01;85.11
64739;BME280;51175;51.186;0.276;2023-11-19T01:28:25;100538.25;;;11.98;85.29
64739;BME280;51175;51.186;0.276;2023-11-19T01:28:56;100541.44;;;12.00;85.55
64739;BME280;51175;51.186;0.276;2023-11-19T01:29:47;100542.72;;;11.97;85.28
64739;BME280;51175;51.186;0.276;2023-11-19T01:30:17;100538.78;;;12.00;85.30
64739;BME280;51175;51.186;0.276;2023-11-19T01:30:53;100538.25;;;11.98;85.23
64739;BME280;51175;51.186;0.276;2023-11-19T01:31:23;100539.03;;;11.98;85.04
64739;BME280;51175;51.186;0.276;2023-11-19T01:31:54;100544.34;;;11.98;85.09
64739;BME280;51175;51.186;0.276;2023-11-19T01:32:25;100548.81;;;11.98;85.25
64739;BME280;51175;51.186;0.276;2023-11-19T01:32:55;100545.13;;;11.99;85.19
64739;BME280;51175;51.186;0.276;2023-11-19T01:33:33;100543.81;;;11.96;85.04
64739;BME280;51175;51.186;0.276;2023-11-19T01:34:03;100543.81;;;11.96;85.34
64739;BME280;51175;51.186;0.276;2023-11-19T01:34:34;100540.88;;;11.98;85.06
64739;BME280;51175;51.186;0.276;2023-11-19T01:35:05;100550.69;;;11.97;85.10
64739;BME280;51175;51.186;0.276;2023-11-19T01:35:36;100541.16;;;11.96;85.06
64739;BME280;51175;51.186;0.276;2023-11-19T01:36:06;100542.72;;;11.97;85.25
64739;BME280;51175;51.186;0.276;2023-11-19T01:36:46;100549.91;;;11.97;84.99
64739;BME280;51175;51.186;0.276;2023-11-19T01:37:24;100535.06;;;11.96;84.98
64739;BME280;51175;51.186;0.276;2023-11-19T01:37:54;100540.09;;;11.97;85.06
64739;BME280;51175;51.186;0.276;2023-11-19T01:38:36;100539.84;;;11.94;85.00
64739;BME280;51175;51.186;0.276;2023-11-19T01:39:07;100539.31;;;11.97;85.10
64739;BME280;51175;51.186;0.276;2023-11-19T01:40:41;100529.78;;;11.96;85.22
64739;BME280;51175;51.186;0.276;2023-11-19T01:41:12;100530.56;;;11.96;85.32
64739;BME280;51175;51.186;0.276;2023-11-19T01:41:44;100523.69;;;11.95;84.92
64739;BME280;51175;51.186;0.276;2023-11-19T01:42:14;100529.00;;;11.95;85.06
64739;BME280;51175;51.186;0.276;2023-11-19T01:42:51;100525.53;;;11.95;85.01
64739;BME280;51175;51.186;0.276;2023-11-19T01:43:41;100530.31;;;11.92;85.07
64739;BME280;51175;51.186;0.276;2023-11-19T01:44:12;100528.19;;;11.95;85.04
64739;BME280;51175;51.186;0.276;2023-11-19T01:45:52;100530.31;;;11.92;85.18
64739;BME280;51175;51.186;0.276;2023-11-19T01:46:44;100526.34;;;11.90;84.98
64739;BME280;51175;51.186;0.276;2023-11-19T01:47:15;100536.66;;;11.91;85.14
64739;BME280;51175;51.186;0.276;2023-11-19T01:47:46;100537.19;;;11.94;85.02
64739;BME280;51175;51.186;0.276;2023-11-19T01:48:16;100532.19;;;11.92;84.81
64739;BME280;51175;51.186;0.276;2023-11-19T01:48:53;100530.84;;;11.89;84.93
64739;BME280;51175;51.186;0.276;2023-11-19T01:49:41;100530.84;;;11.89;85.01
64739;BME280;51175;51.186;0.276;2023-11-19T01:50:11;100521.84;;;11.90;84.87
64739;BME280;51175;51.186;0.276;2023-11-19T01:51:50;100528.47;;;11.88;84.97
64739;BME280;51175;51.186;0.276;2023-11-19T01:52:20;100530.06;;;11.89;84.64
64739;BME280;51175;51.186;0.276;2023-11-19T01:53:26;100539.31;;;11.86;84.80
64739;BME280;51175;51.186;0.276;2023-11-19T01:53:58;100532.97;;;11.87;84.62
64739;BME280;51175;51.186;0.276;2023-11-19T01:54:29;100528.47;;;11.88;84.69
64739;BME280;51175;51.186;0.276;2023-11-19T01:55:00;100523.16;;;11.88;84.60
64739;BME280;51175;51.186;0.276;2023-11-19T01:55:30;100514.44;;;11.87;84.64
64739;BME280;51175;51.186;0.276;2023-11-19T01:56:01;100525.81;;;11.88;84.40
64739;BME280;51175;51.186;0.276;2023-11-19T01:56:41;100532.44;;;11.85;84.63
64739;BME280;51175;51.186;0.276;2023-11-19T01:57:12;100526.88;;;11.87;84.56
64739;BME280;51175;51.186;0.276;2023-11-19T01:57:44;100530.34;;;11.87;84.84
64739;BME280;51175;51.186;0.276;2023-11-19T01:58:15;100528.47;;;11.88;84.72
64739;BME280;51175;51.186;0.276;2023-11-19T01:58:54;100532.44;;;11.85;84.47
64739;BME280;51175;51.186;0.276;2023-11-19T01:59:26;100526.88;;;11.87;84.64
64739;BME280;51175;51.186;0.276;2023-11-19T01:59:58;100527.69;;;11.87;84.53
64739;BME280;51175;51.186;0.276;2023-11-19T02:00:30;100526.63;;;11.88;84.56
64739;BME280;51175;51.186;0.276;2023-11-19T02:01:01;100523.97;;;11.88;84.75
64739;BME280;51175;51.186;0.276;2023-11-19T02:01:35;100518.41;;;11.90;84.60
64739;BME280;51175;51.186;0.276;2023-11-19T02:02:09;100522.91;;;11.89;84.36
64739;BME280;51175;51.186;0.276;2023-11-19T02:02:50;100532.19;;;11.87;84.33
64739;BME280;51175;51.186;0.276;2023-11-19T02:03:22;100525.03;;;11.87;84.49
64739;BME280;51175;51.186;0.276;2023-11-19T02:03:57;100517.09;;;11.87;84.37
64739;BME280;51175;51.186;0.276;2023-11-19T02:04:28;100521.31;;;11.88;84.57
64739;BME280;51175;51.186;0.276;2023-11-19T02:05:08;100517.38;;;11.86;84.51
64739;BME280;51175;51.186;0.276;2023-11-19T02:05:48;100517.38;;;11.86;84.48
64739;BME280;51175;51.186;0.276;2023-11-19T02:06:19;100528.47;;;11.88;84.49
64739;BME280;51175;51.186;0.276;2023-11-19T02:06:58;100526.06;;;11.86;84.51
64739;BME280;51175;51.186;0.276;2023-11-19T02:07:29;100531.91;;;11.88;84.19
64739;BME280;51175;51.186;0.276;2023-11-19T02:08:06;100531.38;;;11.86;84.39
64739;BME280;51175;51.186;0.276;2023-11-19T02:08:39;100527.69;;;11.87;84.13
64739;BME280;51175;51.186;0.276;2023-11-19T02:09:10;100536.41;;;11.88;84.34
64739;BME280;51175;51.186;0.276;2023-11-19T02:09:43;100531.38;;;11.86;84.47
64739;BME280;51175;51.186;0.276;2023-11-19T02:10:14;100524.25;;;11.87;84.56
64739;BME280;51175;51.186;0.276;2023-11-19T02:10:47;100518.94;;;11.87;84.39
64739;BME280;51175;51.186;0.276;2023-11-19T02:11:17;100540.13;;;11.87;84.36
64739;BME280;51175;51.186;0.276;2023-11-19T02:11:48;100543.56;;;11.87;84.45
64739;BME280;51175;51.186;0.276;2023-11-19T02:12:21;100543.84;;;11.86;84.53
64739;BME280;51175;51.186;0.276;2023-11-19T02:12:52;100535.09;;;11.85;84.55
64739;BME280;51175;51.186;0.276;2023-11-19T02:13:23;100540.38;;;11.85;84.45
64739;BME280;51175;51.186;0.276;2023-11-19T02:13:56;100532.19;;;11.87;84.71
64739;BME280;51175;51.186;0.276;2023-11-19T02:14:27;100536.66;;;11.86;84.80
64739;BME280;51175;51.186;0.276;2023-11-19T02:15:11;100530.06;;;11.84;84.68
64739;BME280;51175;51.186;0.276;2023-11-19T02:15:41;100529.78;;;11.85;84.72
64739;BME280;51175;51.186;0.276;2023-11-19T02:16:13;100535.88;;;11.86;84.64
64739;BME280;51175;51.186;0.276;2023-11-19T02:16:44;100520.78;;;11.86;84.57
64739;BME280;51175;51.186;0.276;2023-11-19T02:17:41;100538.00;;;11.84;84.63
64739;BME280;51175;51.186;0.276;2023-11-19T02:18:25;100520.53;;;11.83;84.44
64739;BME280;51175;51.186;0.276;2023-11-19T02:18:59;100524.50;;;11.85;84.66
64739;BME280;51175;51.186;0.276;2023-11-19T02:19:29;100527.94;;;11.86;84.81
64739;BME280;51175;51.186;0.276;2023-11-19T02:20:07;100525.84;;;11.83;84.75
64739;BME280;51175;51.186;0.276;2023-11-19T02:20:41;100526.09;;;11.81;84.70
64739;BME280;51175;51.186;0.276;2023-11-19T02:21:37;100518.94;;;11.82;84.67
64739;BME280;51175;51.186;0.276;2023-11-19T02:22:29;100518.44;;;11.79;84.71
64739;BME280;51175;51.186;0.276;2023-11-19T02:23:07;100517.38;;;11.80;84.64
64739;BME280;51175;51.186;0.276;2023-11-19T02:23:37;100524.22;;;11.82;84.64
64739;BME280;51175;51.186;0.276;2023-11-19T02:25:32;100515.53;;;11.81;84.74
64739;BME280;51175;51.186;0.276;2023-11-19T02:28:19;100505.97;;;11.80;84.74
64739;BME280;51175;51.186;0.276;2023-11-19T02:28:49;100512.88;;;11.81;84.71
64739;BME280;51175;51.186;0.276;2023-11-19T02:30:45;100511.53;;;11.78;84.83
64739;BME280;51175;51.186;0.276;2023-11-19T02:31:16;100507.06;;;11.79;84.77
64739;BME280;51175;51.186;0.276;2023-11-19T02:31:46;100501.75;;;11.79;84.74
64739;BME280;51175;51.186;0.276;2023-11-19T02:32:19;100504.41;;;11.79;84.88
64739;BME280;51175;51.186;0.276;2023-11-19T02:32:50;100499.91;;;11.79;84.63
64739;BME280;51175;51.186;0.276;2023-11-19T02:33:29;100496.47;;;11.79;84.58
64739;BME280;51175;51.186;0.276;2023-11-19T02:34:00;100487.47;;;11.80;84.69
64739;BME280;51175;51.186;0.276;2023-11-19T02:34:38;100505.19;;;11.79;84.69
64739;BME280;51175;51.186;0.276;2023-11-19T02:35:08;100491.72;;;11.81;84.59
64739;BME280;51175;51.186;0.276;2023-11-19T02:35:54;100506.25;;;11.78;84.68
64739;BME280;51175;51.186;0.276;2023-11-19T02:36:24;100501.50;;;11.80;84.65
64739;BME280;51175;51.186;0.276;2023-11-19T02:36:55;100507.06;;;11.79;84.79
64739;BME280;51175;51.186;0.276;2023-11-19T02:37:27;100496.72;;;11.77;84.70
64739;BME280;51175;51.186;0.276;2023-11-19T02:37:59;100499.91;;;11.79;84.43
64739;BME280;51175;51.186;0.276;2023-11-19T02:38:31;100504.41;;;11.79;84.37
64739;BME280;51175;51.186;0.276;2023-11-19T02:39:01;100493.81;;;11.79;84.67
64739;BME280;51175;51.186;0.276;2023-11-19T02:39:41;100495.94;;;11.77;84.67
64739;BME280;51175;51.186;0.276;2023-11-19T02:40:31;100500.44;;;11.76;84.73
64739;BME280;51175;51.186;0.276;2023-11-19T02:41:06;100498.31;;;11.78;84.52
64739;BME280;51175;51.186;0.276;2023-11-19T02:41:44;100491.72;;;11.76;84.74
64739;BME280;51175;51.186;0.276;2023-11-19T02:42:15;100500.19;;;11.78;84.50
64739;BME280;51175;51.186;0.276;2023-11-19T02:42:47;100502.03;;;11.77;84.86
64739;BME280;51175;51.186;0.276;2023-11-19T02:43:22;100500.44;;;11.76;84.64
64739;BME280;51175;51.186;0.276;2023-11-19T02:43:53;100501.22;;;11.77;84.73
64739;BME280;51175;51.186;0.276;2023-11-19T02:44:23;100503.09;;;11.76;84.56
64739;BME280;51175;51.186;0.276;2023-11-19T02:44:54;100494.09;;;11.77;84.68
64739;BME280;51175;51.186;0.276;2023-11-19T02:45:28;100507.03;;;11.74;84.40
64739;BME280;51175;51.186;0.276;2023-11-19T02:46:02;100501.50;;;11.75;84.64
64739;BME280;51175;51.186;0.276;2023-11-19T02:46:33;100511.03;;;11.76;84.46
64739;BME280;51175;51.186;0.276;2023-11-19T02:47:05;100504.13;;;11.75;84.58
64739;BME280;51175;51.186;0.276;2023-11-19T02:47:44;100495.69;;;11.73;84.68
64739;BME280;51175;51.186;0.276;2023-11-19T02:48:14;100504.41;;;11.74;84.55
64739;BME280;51175;51.186;0.276;2023-11-19T02:48:48;100502.81;;;11.73;84.55
64739;BME280;51175;51.186;0.276;2023-11-19T02:49:18;100494.63;;;11.74;84.57
64739;BME280;51175;51.186;0.276;2023-11-19T02:49:54;100501.75;;;11.74;84.30
64739;BME280;51175;51.186;0.276;2023-11-19T02:50:28;100504.13;;;11.75;84.36
64739;BME280;51175;51.186;0.276;2023-11-19T02:50:58;100510.22;;;11.76;84.45
64739;BME280;51175;51.186;0.276;2023-11-19T02:51:37;100510.50;;;11.74;84.42
64739;BME280;51175;51.186;0.276;2023-11-19T02:52:08;100504.94;;;11.76;84.34
64739;BME280;51175;51.186;0.276;2023-11-19T02:52:43;100505.19;;;11.74;84.37
64739;BME280;51175;51.186;0.276;2023-11-19T02:53:16;100508.38;;;11.76;84.41
64739;BME280;51175;51.186;0.276;2023-11-19T02:54:05;100513.41;;;11.73;84.55
64739;BME280;51175;51.186;0.276;2023-11-19T02:54:42;100506.53;;;11.72;84.61
64739;BME280;51175;51.186;0.276;2023-11-19T02:55:13;100505.19;;;11.74;84.59
64739;BME280;51175;51.186;0.276;2023-11-19T02:55:52;100499.38;;;11.72;84.61
64739;BME280;51175;51.186;0.276;2023-11-19T02:56:22;100498.06;;;11.75;84.64
64739;BME280;51175;51.186;0.276;2023-11-19T02:56:56;100500.97;;;11.73;84.54
64739;BME280;51175;51.186;0.276;2023-11-19T02:57:46;100502.03;;;11.72;84.69
64739;BME280;51175;51.186;0.276;2023-11-19T02:58:18;100501.50;;;11.75;84.57
64739;BME280;51175;51.186;0.276;2023-11-19T02:58:53;100498.06;;;11.75;84.65
64739;BME280;51175;51.186;0.276;2023-11-19T02:59:24;100491.72;;;11.76;84.50
64739;BME280;51175;51.186;0.276;2023-11-19T03:00:07;100494.88;;;11.73;84.68
64739;BME280;51175;51.186;0.276;2023-11-19T03:00:43;100506.00;;;11.75;84.56
64739;BME280;51175;51.186;0.276;2023-11-19T03:01:23;100489.59;;;11.73;84.59
64739;BME280;51175;51.186;0.276;2023-11-19T03:02:20;100491.97;;;11.69;84.56
64739;BME280;51175;51.186;0.276;2023-11-19T03:02:58;100497.53;;;11.67;84.68
64739;BME280;51175;51.186;0.276;2023-11-19T03:03:29;100497.25;;;11.69;84.71
64739;BME280;51175;51.186;0.276;2023-11-19T03:04:10;100497.25;;;11.69;84.58
64739;BME280;51175;51.186;0.276;2023-11-19T03:04:42;100491.97;;;11.69;84.98
64739;BME280;51175;51.186;0.276;2023-11-19T03:05:14;100499.13;;;11.69;84.97
64739;BME280;51175;51.186;0.276;2023-11-19T03:05:46;100495.41;;;11.70;84.81